Time;durP1;ratioP1;P1;durP2;ratioP2;P2;SDS_P1;SDS_P2;PMS_P1;PMS_P2;Temp;Humidity;BMP_temperature;BMP_pressure;BME280_temperature;BME280_humidity;BME280_pressure;Samples;Min_cycle;Max_cycle;Signal;HPM_P1;HPM_P2
2023/12/22 00:01:22;;;;;;;2.70;1.00;;;;;;;7.63;75.74;94895.41;5003426;28;20184;-70
2023/12/22 00:03:49;;;;;;;1.33;1.00;;;;;;;7.61;76.47;94899.03;5005364;28;20210;-70
2023/12/22 00:06:15;;;;;;;1.00;0.87;;;;;;;7.50;76.20;94885.72;5005959;28;20259;-69
2023/12/22 00:08:40;;;;;;;1.43;0.87;;;;;;;7.57;74.21;94864.41;5003511;28;20852;-70
2023/12/22 00:11:06;;;;;;;3.90;1.17;;;;;;;7.56;73.13;94867.97;5004913;28;20191;-69
2023/12/22 00:13:33;;;;;;;3.27;0.80;;;;;;;7.27;74.56;94866.13;5008434;28;20291;-70
2023/12/22 00:15:58;;;;;;;2.40;1.10;;;;;;;7.25;73.60;94886.25;5008537;28;20261;-70
2023/12/22 00:18:23;;;;;;;1.50;0.70;;;;;;;7.31;73.40;94891.13;5005057;28;20443;-69
2023/12/22 00:20:49;;;;;;;1.93;0.90;;;;;;;7.48;73.46;94884.97;5006216;28;20184;-69
2023/12/22 00:23:14;;;;;;;1.67;0.80;;;;;;;7.46;71.53;94899.88;5008103;28;20641;-69
2023/12/22 00:25:40;;;;;;;1.67;0.90;;;;;;;7.43;72.67;94900.88;5006224;28;20181;-70
2023/12/22 00:28:05;;;;;;;2.37;1.60;;;;;;;7.31;72.54;94884.16;5002077;28;20204;-69
2023/12/22 00:30:30;;;;;;;3.27;0.83;;;;;;;7.33;73.13;94886.69;5007992;28;20196;-71
2023/12/22 00:32:56;;;;;;;1.03;0.80;;;;;;;7.26;74.04;94878.34;5007437;28;20235;-69
2023/12/22 00:35:21;;;;;;;1.20;0.90;;;;;;;7.33;73.71;94887.50;5008106;28;20331;-71
2023/12/22 00:37:47;;;;;;;1.40;0.90;;;;;;;7.40;73.44;94864.53;5007999;28;20584;-71
2023/12/22 00:40:12;;;;;;;5.33;1.10;;;;;;;7.30;73.57;94894.66;5006926;28;20815;-70
2023/12/22 00:42:38;;;;;;;1.87;0.80;;;;;;;7.31;73.43;94896.34;5006946;28;20212;-69
2023/12/22 00:45:04;;;;;;;1.40;0.90;;;;;;;7.31;74.10;94896.34;5008458;28;20207;-70
2023/12/22 00:47:29;;;;;;;2.17;1.00;;;;;;;7.52;73.96;94905.59;5008472;28;20574;-70
2023/12/22 00:49:54;;;;;;;1.00;0.77;;;;;;;7.45;73.12;94888.59;5000675;28;20680;-70
2023/12/22 00:52:20;;;;;;;1.73;0.90;;;;;;;7.47;73.38;94896.34;5008373;28;20211;-70
2023/12/22 00:54:45;;;;;;;2.17;0.80;;;;;;;7.29;74.00;94888.59;5007451;28;20183;-70
2023/12/22 00:57:11;;;;;;;1.60;0.80;;;;;;;7.36;74.50;94889.94;5007163;28;20199;-70
2023/12/22 00:59:36;;;;;;;1.60;1.20;;;;;;;7.32;74.06;94883.22;5007776;28;20269;-70
2023/12/22 01:02:02;;;;;;;2.10;1.37;;;;;;;7.29;74.18;94880.78;5007441;28;20274;-69
2023/12/22 01:04:27;;;;;;;3.10;1.00;;;;;;;7.23;74.23;94878.53;4989254;28;20227;-70
2023/12/22 01:06:53;;;;;;;2.20;1.13;;;;;;;7.39;73.40;94868.06;5007739;28;20223;-70
2023/12/22 01:09:19;;;;;;;5.77;1.60;;;;;;;7.43;73.03;94859.97;5006788;28;20631;-70
2023/12/22 01:11:45;;;;;;;1.47;1.00;;;;;;;7.46;73.45;94863.34;5006977;28;20203;-70
2023/12/22 01:14:12;;;;;;;10.33;1.77;;;;;;;7.58;73.86;94854.81;5007008;28;20435;-69
2023/12/22 01:16:38;;;;;;;3.53;1.60;;;;;;;7.56;73.19;94849.69;5005516;28;20650;-70
2023/12/22 01:19:04;;;;;;;3.37;1.43;;;;;;;7.77;72.23;94865.03;5007628;28;20465;-70
2023/12/22 01:21:29;;;;;;;5.57;2.93;;;;;;;7.76;72.43;94861.59;5007488;28;20222;-69
2023/12/22 01:23:54;;;;;;;5.57;1.50;;;;;;;7.84;71.90;94859.41;5007855;28;20850;-70
2023/12/22 01:26:20;;;;;;;8.03;1.37;;;;;;;7.81;71.48;94864.78;4999614;28;20208;-68
2023/12/22 01:28:45;;;;;;;3.07;1.50;;;;;;;7.93;71.03;94857.16;5008388;28;20282;-70
2023/12/22 01:31:10;;;;;;;5.70;1.80;;;;;;;7.90;70.51;94854.75;5009090;28;20204;-70
2023/12/22 01:33:36;;;;;;;3.47;1.50;;;;;;;7.86;70.38;94846.22;5007658;28;20208;-70
2023/12/22 01:36:01;;;;;;;3.77;1.90;;;;;;;7.90;70.54;94878.25;4998182;28;20214;-69
2023/12/22 01:38:27;;;;;;;2.90;1.10;;;;;;;7.87;70.85;94900.16;5006354;28;20188;-69
2023/12/22 01:40:52;;;;;;;4.23;1.10;;;;;;;7.97;70.38;94892.63;5007625;28;20584;-70
2023/12/22 01:43:21;;;;;;;2.70;1.27;;;;;;;7.86;71.77;94882.78;5006461;28;20238;-69
2023/12/22 01:45:56;;;;;;;4.60;1.40;;;;;;;7.80;71.93;94893.59;5007115;28;20204;-70
2023/12/22 01:48:23;;;;;;;3.27;1.87;;;;;;;7.95;71.09;94878.81;5006962;28;20702;-71
2023/12/22 01:50:51;;;;;;;4.00;1.40;;;;;;;7.90;70.02;94868.63;5006716;28;20443;-70
2023/12/22 01:53:17;;;;;;;2.10;1.47;;;;;;;8.01;70.02;94875.88;4996316;28;20455;-70
2023/12/22 01:55:42;;;;;;;4.03;1.97;;;;;;;7.90;69.38;94878.25;5010400;28;20552;-70
2023/12/22 01:58:08;;;;;;;3.10;1.43;;;;;;;7.92;69.66;94892.91;5006636;28;20616;-70
2023/12/22 02:00:33;;;;;;;3.27;1.50;;;;;;;8.01;69.47;94897.59;5006043;28;20180;-70
2023/12/22 02:02:59;;;;;;;5.63;1.43;;;;;;;7.85;68.24;94897.63;5006195;28;20203;-70
2023/12/22 02:05:24;;;;;;;6.30;2.20;;;;;;;7.90;68.59;94907.81;5007491;28;20490;-70
2023/12/22 02:07:50;;;;;;;4.03;1.83;;;;;;;7.91;68.69;94906.03;5004072;28;20544;-70
2023/12/22 02:10:15;;;;;;;4.80;2.13;;;;;;;8.04;67.94;94883.50;4997446;28;20175;-70
2023/12/22 02:12:42;;;;;;;2.43;1.40;;;;;;;7.95;67.97;94881.44;5005908;28;20204;-70
2023/12/22 02:15:08;;;;;;;3.23;1.50;;;;;;;7.97;67.19;94869.97;5004978;28;20184;-70
2023/12/22 02:17:50;;;;;;;2.53;1.40;;;;;;;7.99;67.70;94878.56;5004504;28;20899;-70
2023/12/22 02:20:16;;;;;;;1.53;1.23;;;;;;;7.94;67.02;94896.28;4994090;28;20200;-70
2023/12/22 02:22:41;;;;;;;3.80;1.50;;;;;;;7.96;68.16;94883.09;4998380;28;21024;-71
2023/12/22 02:25:07;;;;;;;3.73;1.57;;;;;;;7.87;67.79;94908.00;5005082;28;20466;-70
2023/12/22 02:27:38;;;;;;;10.20;1.47;;;;;;;7.85;67.21;94881.13;5006340;28;20705;-70
2023/12/22 02:30:14;;;;;;;1.70;1.20;;;;;;;7.81;67.16;94885.66;5005128;28;20192;-70
2023/12/22 02:32:46;;;;;;;1.93;1.00;;;;;;;7.82;66.10;94900.44;5006546;28;20735;-69
2023/12/22 02:35:23;;;;;;;1.30;0.80;;;;;;;7.72;66.83;94894.03;5006363;28;20435;-70
2023/12/22 02:37:49;;;;;;;1.47;1.00;;;;;;;7.73;66.59;94887.88;4999868;28;20803;-70
2023/12/22 02:40:17;;;;;;;2.70;1.00;;;;;;;7.78;66.07;94885.00;5004257;28;20449;-70
2023/12/22 02:42:43;;;;;;;1.40;0.80;;;;;;;7.62;65.92;94891.09;5000306;28;20462;-70
2023/12/22 02:45:17;;;;;;;1.27;0.87;;;;;;;7.59;65.71;94874.78;4986065;28;20550;-70
2023/12/22 02:47:42;;;;;;;2.03;0.80;;;;;;;7.60;65.32;94894.72;5004893;28;20522;-70
2023/12/22 02:50:09;;;;;;;1.60;0.90;;;;;;;7.60;64.97;94897.34;5001171;28;20881;-70
2023/12/22 02:52:35;;;;;;;2.23;0.97;;;;;;;7.67;64.49;94911.72;5005321;28;20223;-70
2023/12/22 02:55:01;;;;;;;1.33;0.77;;;;;;;7.57;63.50;94913.19;5002660;28;20530;-69
2023/12/22 02:57:26;;;;;;;2.00;1.07;;;;;;;7.59;63.95;94888.66;5004072;28;20605;-70
2023/12/22 02:59:51;;;;;;;1.20;0.80;;;;;;;7.65;63.31;94882.25;5005152;28;20662;-70
2023/12/22 03:02:17;;;;;;;1.20;0.90;;;;;;;7.67;63.63;94885.63;4999974;28;20200;-70
2023/12/22 03:04:42;;;;;;;3.57;0.90;;;;;;;7.50;63.05;94901.41;5002624;28;20216;-70
2023/12/22 03:07:08;;;;;;;2.30;0.97;;;;;;;7.51;63.30;94897.84;5005107;28;20559;-69
2023/12/22 03:09:34;;;;;;;1.27;0.87;;;;;;;7.55;63.18;94912.41;4998238;28;20176;-71
2023/12/22 03:12:01;;;;;;;4.27;1.90;;;;;;;7.51;63.47;94905.69;5005883;28;20262;-70
2023/12/22 03:14:33;;;;;;;1.10;0.87;;;;;;;7.45;62.71;94908.66;5005085;28;20506;-69
2023/12/22 03:17:03;;;;;;;2.07;0.83;;;;;;;7.41;62.80;94898.34;5005480;28;20443;-70
2023/12/22 03:19:28;;;;;;;1.83;1.27;;;;;;;7.40;63.84;94907.13;4998437;28;20439;-70
2023/12/22 03:21:56;;;;;;;2.50;1.13;;;;;;;7.42;63.53;94920.09;5004561;28;20491;-71
2023/12/22 03:24:22;;;;;;;3.33;1.20;;;;;;;7.33;63.67;94894.50;5004130;28;20210;-68
2023/12/22 03:26:51;;;;;;;5.63;1.50;;;;;;;7.39;63.78;94895.00;5005242;28;20435;-70
2023/12/22 03:29:17;;;;;;;6.30;1.00;;;;;;;7.55;63.44;94886.31;5004942;28;20446;-70
2023/12/22 03:31:43;;;;;;;2.30;1.43;;;;;;;7.56;63.81;94885.38;5005466;28;20458;-70
2023/12/22 03:34:09;;;;;;;5.13;1.47;;;;;;;7.59;63.37;94900.88;5005358;28;20830;-70
2023/12/22 03:36:35;;;;;;;3.30;1.20;;;;;;;7.52;63.83;94900.38;5003450;28;20446;-70
2023/12/22 03:39:00;;;;;;;1.67;1.20;;;;;;;7.56;63.63;94873.19;5005800;28;20414;-70
2023/12/22 03:41:26;;;;;;;4.30;1.30;;;;;;;7.47;63.80;94878.91;5009419;28;20215;-70
2023/12/22 03:43:51;;;;;;;6.10;2.30;;;;;;;7.45;63.66;94869.50;5007394;28;20208;-70
2023/12/22 03:46:16;;;;;;;4.20;1.87;;;;;;;7.67;63.56;94875.16;5011627;28;20198;-71
2023/12/22 03:48:42;;;;;;;2.00;1.53;;;;;;;7.73;63.50;94879.22;5011708;28;20346;-70
2023/12/22 03:51:07;;;;;;;1.80;1.10;;;;;;;7.59;62.68;94864.34;5011050;28;20257;-70
2023/12/22 03:53:33;;;;;;;4.47;1.37;;;;;;;7.63;63.56;94865.84;5005460;28;20315;-70
2023/12/22 03:55:58;;;;;;;3.33;1.30;;;;;;;7.59;62.40;94877.38;5011389;28;20233;-69
2023/12/22 03:58:25;;;;;;;3.73;1.10;;;;;;;7.67;62.92;94905.66;5010777;28;20190;-69
2023/12/22 04:00:51;;;;;;;3.33;1.27;;;;;;;7.67;61.78;94919.56;5010608;28;20267;-70
2023/12/22 04:03:17;;;;;;;2.40;1.60;;;;;;;7.71;61.55;94935.91;5010759;28;20601;-69
2023/12/22 04:05:42;;;;;;;1.53;0.83;;;;;;;7.72;62.26;94956.69;5000451;28;20251;-69
2023/12/22 04:08:07;;;;;;;3.70;1.47;;;;;;;7.51;63.09;94945.69;4998158;28;20189;-70
2023/12/22 04:10:33;;;;;;;3.13;1.50;;;;;;;7.57;63.47;94934.06;5010240;28;20187;-70
2023/12/22 04:12:58;;;;;;;2.00;1.00;;;;;;;7.58;62.99;94931.38;5008659;28;20278;-70
2023/12/22 04:15:23;;;;;;;2.90;1.17;;;;;;;7.50;62.93;94930.94;5010188;28;20549;-70
2023/12/22 04:17:49;;;;;;;5.93;1.17;;;;;;;7.56;63.26;94932.34;5010959;28;20295;-70
2023/12/22 04:20:15;;;;;;;2.63;0.97;;;;;;;7.52;62.40;94929.09;5000224;28;20226;-70
2023/12/22 04:22:40;;;;;;;1.67;0.90;;;;;;;7.60;61.86;94939.09;4998583;28;21049;-70
2023/12/22 04:25:06;;;;;;;1.43;0.80;;;;;;;7.56;62.43;94942.81;4994757;28;20228;-70
2023/12/22 04:27:31;;;;;;;7.47;1.43;;;;;;;7.54;62.63;94936.84;5012979;28;20625;-69
2023/12/22 04:29:57;;;;;;;4.27;1.40;;;;;;;7.69;62.23;94927.31;5008582;28;20299;-70
2023/12/22 04:32:22;;;;;;;3.53;1.10;;;;;;;7.74;62.17;94947.00;5009992;28;20216;-70
2023/12/22 04:34:48;;;;;;;4.47;1.67;;;;;;;7.58;64.01;94941.81;5011150;28;20187;-69
2023/12/22 04:37:13;;;;;;;2.70;1.03;;;;;;;7.59;64.97;94955.72;5010771;28;20195;-70
2023/12/22 04:39:38;;;;;;;5.60;1.67;;;;;;;7.70;64.89;94955.09;5011027;28;20675;-68
2023/12/22 04:42:04;;;;;;;3.83;1.20;;;;;;;7.61;66.44;94951.25;5010828;28;20603;-69
2023/12/22 04:44:29;;;;;;;3.00;1.30;;;;;;;7.53;66.50;94943.81;5011388;28;20269;-70
2023/12/22 04:46:54;;;;;;;4.93;1.07;;;;;;;7.51;68.19;94950.03;5012075;28;20752;-70
2023/12/22 04:49:20;;;;;;;4.40;1.50;;;;;;;7.42;68.64;94939.19;5011537;28;20199;-71
2023/12/22 04:51:45;;;;;;;4.30;1.10;;;;;;;7.42;68.42;94933.97;5006090;28;20287;-70
2023/12/22 04:54:10;;;;;;;5.00;1.40;;;;;;;7.28;69.35;94962.59;5008665;28;20229;-69
2023/12/22 04:56:36;;;;;;;4.97;2.30;;;;;;;7.41;68.79;94937.50;5006695;28;20729;-69
2023/12/22 04:59:01;;;;;;;2.80;1.90;;;;;;;7.28;69.63;94946.13;5004331;28;20187;-69
2023/12/22 05:01:27;;;;;;;5.27;1.40;;;;;;;7.27;69.75;94937.41;4999974;28;20242;-70
2023/12/22 05:03:53;;;;;;;4.67;1.60;;;;;;;7.20;70.62;94964.75;5006825;28;20223;-69
2023/12/22 05:06:19;;;;;;;3.03;1.30;;;;;;;7.30;70.37;94980.75;5002209;28;20488;-70
2023/12/22 05:08:44;;;;;;;3.63;2.07;;;;;;;7.19;70.27;94979.59;5007890;28;20434;-69
2023/12/22 05:11:10;;;;;;;3.97;1.77;;;;;;;7.13;70.95;94972.06;5008010;28;20708;-70
2023/12/22 05:13:36;;;;;;;2.40;1.27;;;;;;;7.21;70.31;94982.13;5007652;28;20204;-69
2023/12/22 05:16:01;;;;;;;4.23;1.43;;;;;;;7.00;71.76;94977.09;5004942;28;20180;-69
2023/12/22 05:18:27;;;;;;;4.63;2.10;;;;;;;7.08;71.50;94979.31;5008086;28;20472;-70
2023/12/22 05:20:53;;;;;;;2.77;1.20;;;;;;;7.15;70.81;94977.22;5007567;28;20192;-69
2023/12/22 05:23:19;;;;;;;3.50;1.33;;;;;;;7.16;69.34;94991.97;5007709;28;20200;-70
2023/12/22 05:25:44;;;;;;;6.37;1.70;;;;;;;7.19;70.00;95012.66;5006004;28;20457;-70
2023/12/22 05:28:09;;;;;;;3.70;1.60;;;;;;;7.22;69.59;95012.50;5004814;28;20512;-70
2023/12/22 05:30:35;;;;;;;4.63;1.50;;;;;;;7.22;69.58;95028.16;5008017;28;20176;-70
2023/12/22 05:33:00;;;;;;;3.93;1.83;;;;;;;7.26;69.57;95032.28;5007264;28;20216;-70
2023/12/22 05:35:26;;;;;;;5.63;1.40;;;;;;;7.19;69.44;95036.16;5005955;28;20192;-69
2023/12/22 05:37:51;;;;;;;4.07;1.90;;;;;;;7.29;68.17;95028.66;5007082;28;20188;-69
2023/12/22 05:40:16;;;;;;;8.60;1.83;;;;;;;7.27;69.16;95013.09;5006963;28;21024;-70
2023/12/22 05:42:42;;;;;;;4.33;1.90;;;;;;;7.25;68.41;95008.88;5006400;28;20266;-69
2023/12/22 05:45:09;;;;;;;2.20;1.00;;;;;;;7.22;67.47;95009.88;5001608;28;20327;-70
2023/12/22 05:47:34;;;;;;;10.80;1.47;;;;;;;7.30;66.87;95009.47;5007248;28;20246;-70
2023/12/22 05:50:00;;;;;;;6.47;1.60;;;;;;;7.39;67.71;95015.06;5007591;28;20917;-69
2023/12/22 05:52:25;;;;;;;3.53;2.03;;;;;;;7.32;66.97;95008.50;5006658;28;20211;-70
2023/12/22 05:54:50;;;;;;;2.60;1.27;;;;;;;7.36;67.96;95023.03;5007181;28;20180;-71
2023/12/22 05:57:16;;;;;;;2.90;1.30;;;;;;;7.30;67.45;95036.44;5000579;28;20208;-71
2023/12/22 05:59:42;;;;;;;6.77;1.80;;;;;;;7.39;66.97;95020.28;5006942;28;20606;-71
2023/12/22 06:02:07;;;;;;;2.00;1.20;;;;;;;7.52;66.42;95028.28;5001366;28;20455;-70
2023/12/22 06:04:33;;;;;;;2.40;1.40;;;;;;;7.40;66.78;95015.91;4997746;28;20275;-70
2023/12/22 06:06:59;;;;;;;4.50;1.53;;;;;;;7.52;64.94;95025.69;5003692;28;20278;-70
2023/12/22 06:09:24;;;;;;;5.70;1.77;;;;;;;7.34;65.41;95032.72;5005873;28;20242;-70
2023/12/22 06:11:50;;;;;;;3.03;1.30;;;;;;;7.46;64.33;94994.66;5011317;28;20839;-70
2023/12/22 06:14:15;;;;;;;2.90;1.60;;;;;;;7.45;65.53;95018.25;5003844;28;20181;-69
2023/12/22 06:16:40;;;;;;;2.20;1.73;;;;;;;7.52;65.76;95046.56;5007326;28;20188;-70
2023/12/22 06:19:06;;;;;;;3.20;2.13;;;;;;;7.56;65.68;95034.16;5007667;28;20257;-71
2023/12/22 06:21:31;;;;;;;3.67;1.70;;;;;;;7.43;68.31;95037.44;4999339;28;20184;-69
2023/12/22 06:23:57;;;;;;;11.70;2.10;;;;;;;7.14;69.62;95043.38;5005070;28;20212;-70
2023/12/22 06:26:23;;;;;;;5.50;1.63;;;;;;;7.27;70.23;95054.00;4999708;28;20504;-71
2023/12/22 06:28:48;;;;;;;5.20;2.27;;;;;;;7.16;71.21;95037.16;5003986;28;20596;-71
2023/12/22 06:31:21;;;;;;;8.23;2.00;;;;;;;7.22;71.01;95039.41;5005383;28;20516;-70
2023/12/22 06:33:47;;;;;;;5.60;1.87;;;;;;;7.21;71.02;95039.53;4999722;28;20188;-70
2023/12/22 06:36:20;;;;;;;6.97;1.87;;;;;;;7.18;70.04;95053.56;5006510;28;20526;-70
2023/12/22 06:38:50;;;;;;;14.93;2.30;;;;;;;7.04;70.95;95049.97;5007110;28;20435;-70
2023/12/22 06:41:19;;;;;;;19.00;2.83;;;;;;;7.12;70.58;95066.91;4998684;28;20533;-70
2023/12/22 06:43:45;;;;;;;7.90;2.50;;;;;;;7.14;70.03;95087.72;4994309;28;20969;-71
2023/12/22 06:46:21;;;;;;;4.57;2.00;;;;;;;7.32;69.99;95085.91;5001805;28;20437;-70
2023/12/22 06:48:47;;;;;;;6.53;1.93;;;;;;;7.14;70.17;95098.16;4991712;28;20184;-70
2023/12/22 06:51:38;;;;;;;5.03;2.33;;;;;;;7.16;70.51;95110.19;5003399;28;21049;-70
2023/12/22 06:54:04;;;;;;;4.70;1.90;;;;;;;6.95;71.40;95093.88;4999535;28;20185;-70
2023/12/22 06:56:31;;;;;;;8.37;1.77;;;;;;;6.91;71.57;95104.53;5005978;28;20466;-69
2023/12/22 06:58:58;;;;;;;3.17;2.00;;;;;;;6.98;71.18;95098.91;5007006;28;20175;-71
2023/12/22 07:01:23;;;;;;;4.60;1.90;;;;;;;7.05;70.29;95102.06;4989836;28;20439;-70
2023/12/22 07:03:49;;;;;;;6.90;3.13;;;;;;;7.10;70.08;95105.28;4988573;28;20991;-70
2023/12/22 07:06:16;;;;;;;4.60;1.40;;;;;;;7.13;69.22;95105.13;5002216;28;20206;-71
2023/12/22 07:08:42;;;;;;;17.07;2.90;;;;;;;7.08;69.31;95106.28;5000887;28;20441;-70
2023/12/22 07:11:08;;;;;;;11.20;2.30;;;;;;;7.09;69.13;95100.16;5005463;28;20445;-71
2023/12/22 07:13:33;;;;;;;4.97;1.93;;;;;;;7.17;69.24;95109.25;5004998;28;20882;-70
2023/12/22 07:15:59;;;;;;;3.30;1.60;;;;;;;7.16;69.14;95135.44;5002806;28;20320;-69
2023/12/22 07:18:25;;;;;;;4.97;1.97;;;;;;;7.28;68.80;95126.16;5006928;28;20724;-69
2023/12/22 07:20:50;;;;;;;7.40;2.20;;;;;;;7.29;68.62;95123.44;5006368;28;20237;-69
2023/12/22 07:23:16;;;;;;;5.23;1.67;;;;;;;7.34;68.57;95136.25;5005525;28;20211;-69
2023/12/22 07:25:41;;;;;;;5.47;2.80;;;;;;;7.17;69.58;95151.00;5006490;28;20651;-70
2023/12/22 07:28:07;;;;;;;4.40;1.60;;;;;;;7.16;69.39;95141.50;5004356;28;20243;-71
2023/12/22 07:30:32;;;;;;;3.50;1.60;;;;;;;7.20;69.16;95150.88;4998834;28;20899;-70
2023/12/22 07:32:57;;;;;;;5.73;1.53;;;;;;;7.10;70.76;95151.41;4998811;28;20208;-70
2023/12/22 07:35:23;;;;;;;4.67;2.30;;;;;;;6.98;71.62;95150.25;5004936;28;20722;-69
2023/12/22 07:37:48;;;;;;;4.00;1.73;;;;;;;7.10;70.71;95130.53;5001692;28;20216;-71
2023/12/22 07:40:14;;;;;;;2.97;1.33;;;;;;;7.11;70.75;95151.34;5001407;28;20180;-69
2023/12/22 07:42:39;;;;;;;2.77;1.30;;;;;;;7.07;70.71;95154.16;4995157;28;20303;-70
2023/12/22 07:45:05;;;;;;;2.60;1.40;;;;;;;6.89;72.19;95156.75;5004798;28;20217;-70
2023/12/22 07:47:36;;;;;;;2.50;1.57;;;;;;;6.85;72.81;95178.72;4998966;28;20651;-70
2023/12/22 07:50:01;;;;;;;6.40;1.80;;;;;;;6.96;71.55;95165.13;5003654;28;20482;-69
2023/12/22 07:52:27;;;;;;;4.93;1.80;;;;;;;7.02;70.84;95148.34;5006428;28;20502;-70
2023/12/22 07:54:52;;;;;;;3.57;2.00;;;;;;;7.01;70.92;95139.66;5000810;28;20235;-70
2023/12/22 07:57:17;;;;;;;5.67;2.33;;;;;;;7.21;70.01;95155.16;4996664;28;20710;-70
2023/12/22 07:59:43;;;;;;;8.13;2.70;;;;;;;7.20;69.41;95150.00;4999796;28;20211;-70
2023/12/22 08:02:08;;;;;;;5.50;2.50;;;;;;;7.26;69.40;95152.31;4996834;28;20686;-70
2023/12/22 08:04:34;;;;;;;8.90;1.80;;;;;;;7.31;68.82;95152.91;4999857;28;20212;-70
2023/12/22 08:06:59;;;;;;;14.63;2.90;;;;;;;7.39;69.11;95153.38;5001237;28;20184;-70
2023/12/22 08:09:25;;;;;;;10.87;2.67;;;;;;;7.35;68.32;95159.69;5002606;28;20195;-70
2023/12/22 08:11:52;;;;;;;7.80;2.43;;;;;;;7.42;68.20;95142.78;5001255;28;20200;-69
2023/12/22 08:14:21;;;;;;;7.53;2.40;;;;;;;7.41;67.43;95145.47;5000510;28;20180;-71
2023/12/22 08:16:46;;;;;;;5.80;2.57;;;;;;;7.26;68.19;95167.97;5002533;28;20461;-70
2023/12/22 08:19:12;;;;;;;4.50;2.60;;;;;;;7.40;67.66;95169.88;5002462;28;20435;-70
2023/12/22 08:21:37;;;;;;;5.83;3.77;;;;;;;7.49;68.89;95179.00;4998878;28;20236;-70
2023/12/22 08:24:03;;;;;;;4.80;2.50;;;;;;;7.35;69.65;95172.72;4991342;28;20296;-70
2023/12/22 08:26:28;;;;;;;6.40;2.47;;;;;;;7.37;69.47;95201.34;5001511;28;20207;-70
2023/12/22 08:28:54;;;;;;;5.33;2.70;;;;;;;7.20;70.73;95196.97;4990991;28;20215;-70
2023/12/22 08:31:19;;;;;;;15.90;3.20;;;;;;;7.32;70.75;95204.22;5007241;28;20615;-70
2023/12/22 08:33:45;;;;;;;9.63;2.77;;;;;;;7.29;71.38;95200.91;5003892;28;20176;-70
2023/12/22 08:36:10;;;;;;;8.60;2.93;;;;;;;7.30;71.71;95202.56;5008842;28;20176;-70
2023/12/22 08:38:40;;;;;;;5.57;1.80;;;;;;;7.28;72.56;95200.06;5000600;28;20666;-70
2023/12/22 08:41:07;;;;;;;3.47;2.30;;;;;;;7.36;71.80;95203.09;5007896;28;20215;-72
2023/12/22 08:43:32;;;;;;;7.10;2.97;;;;;;;7.21;73.47;95204.72;5004918;28;20459;-71
2023/12/22 08:45:57;;;;;;;6.43;3.27;;;;;;;7.16;73.06;95204.13;5007806;28;20489;-70
2023/12/22 08:48:23;;;;;;;4.53;2.83;;;;;;;7.16;73.70;95196.28;5013966;28;20181;-70
2023/12/22 08:50:49;;;;;;;8.53;3.17;;;;;;;7.13;73.87;95196.41;5013786;28;20701;-70
2023/12/22 08:53:15;;;;;;;8.73;3.20;;;;;;;7.17;74.88;95202.34;5009373;28;20284;-70
2023/12/22 08:55:40;;;;;;;4.97;2.73;;;;;;;7.20;74.12;95195.22;5005722;28;20510;-70
2023/12/22 08:58:06;;;;;;;5.67;3.00;;;;;;;7.24;74.19;95198.50;5002951;28;20180;-69
2023/12/22 09:00:31;;;;;;;10.50;4.23;;;;;;;7.20;74.67;95200.44;5005722;28;20185;-70
2023/12/22 09:02:56;;;;;;;12.27;2.33;;;;;;;7.14;74.57;95179.03;5003506;28;20881;-71
2023/12/22 09:05:22;;;;;;;4.90;2.70;;;;;;;7.38;73.91;95176.94;5007993;28;20704;-70
2023/12/22 09:07:47;;;;;;;4.03;2.40;;;;;;;7.40;73.82;95177.72;5009878;28;20264;-71
2023/12/22 09:10:13;;;;;;;10.70;3.40;;;;;;;7.48;73.59;95179.91;5003029;28;20185;-72
2023/12/22 09:12:38;;;;;;;6.07;2.60;;;;;;;7.41;72.67;95193.28;5010231;28;20226;-70
2023/12/22 09:15:04;;;;;;;6.10;2.10;;;;;;;7.57;72.74;95195.94;5007430;28;20168;-69
2023/12/22 09:17:29;;;;;;;6.13;2.70;;;;;;;7.54;73.08;95198.72;5000916;28;20188;-69
2023/12/22 09:19:55;;;;;;;5.70;2.67;;;;;;;7.75;72.09;95185.50;5004271;28;20192;-68
2023/12/22 09:22:21;;;;;;;7.30;2.07;;;;;;;7.41;72.68;95180.22;5003708;28;20921;-70
2023/12/22 09:24:46;;;;;;;8.00;3.00;;;;;;;7.67;71.81;95167.59;5007570;28;20603;-69
2023/12/22 09:27:12;;;;;;;16.57;3.03;;;;;;;7.66;71.71;95167.69;5005022;28;20447;-70
2023/12/22 09:29:38;;;;;;;20.03;4.13;;;;;;;7.75;71.59;95167.22;5005979;28;20267;-68
2023/12/22 09:32:04;;;;;;;67.97;7.80;;;;;;;7.75;72.15;95167.22;5007647;28;20977;-71
2023/12/22 09:34:29;;;;;;;77.90;8.17;;;;;;;7.90;70.69;95160.34;5004945;28;20180;-71
2023/12/22 09:36:55;;;;;;;11.37;3.97;;;;;;;7.92;70.90;95161.94;5006460;28;20188;-71
2023/12/22 09:39:20;;;;;;;5.13;1.70;;;;;;;7.77;69.97;95176.66;5006373;28;20180;-72
2023/12/22 09:41:48;;;;;;;4.20;2.70;;;;;;;7.87;70.67;95182.25;5004549;28;20215;-71
2023/12/22 09:44:20;;;;;;;9.50;2.60;;;;;;;7.72;71.45;95181.25;5001261;28;20192;-70
2023/12/22 09:46:48;;;;;;;8.13;2.37;;;;;;;7.83;70.19;95186.75;5001607;28;20434;-72
2023/12/22 09:49:15;;;;;;;9.53;2.67;;;;;;;8.18;76.08;95197.13;5003341;28;20442;-69
2023/12/22 09:51:42;;;;;;;8.63;3.70;;;;;;;8.65;69.04;95198.94;4998613;28;20891;-71
2023/12/22 09:54:09;;;;;;;7.90;4.40;;;;;;;8.31;68.49;95193.84;5004081;28;20920;-72
2023/12/22 09:56:41;;;;;;;6.63;2.23;;;;;;;8.05;69.77;95183.00;5004783;28;20859;-70
2023/12/22 09:59:08;;;;;;;8.20;2.10;;;;;;;8.01;69.75;95184.97;5005597;28;21204;-71
2023/12/22 10:01:34;;;;;;;5.57;2.43;;;;;;;7.96;70.74;95181.75;5004889;28;20427;-70
2023/12/22 10:04:00;;;;;;;4.50;2.20;;;;;;;8.02;70.21;95184.03;5006319;28;20462;-71
2023/12/22 10:06:25;;;;;;;2.10;1.77;;;;;;;7.73;70.78;95182.13;4997388;28;20423;-71
2023/12/22 10:08:52;;;;;;;4.30;2.20;;;;;;;7.74;71.86;95175.97;4998103;28;20185;-70
2023/12/22 10:11:20;;;;;;;4.27;2.60;;;;;;;7.80;71.92;95171.25;5000252;28;20172;-70
2023/12/22 10:13:48;;;;;;;3.90;1.47;;;;;;;7.82;71.90;95184.25;5006020;28;21259;-71
2023/12/22 10:16:14;;;;;;;5.53;1.77;;;;;;;7.80;70.79;95165.22;5008473;28;20459;-69
2023/12/22 10:18:39;;;;;;;3.80;1.93;;;;;;;7.92;70.31;95166.31;5010861;28;20481;-70
2023/12/22 10:21:05;;;;;;;4.80;2.20;;;;;;;7.89;70.18;95163.84;5010095;28;20467;-71
2023/12/22 10:23:31;;;;;;;4.57;2.30;;;;;;;7.92;69.86;95176.78;4996631;28;20211;-70
2023/12/22 10:25:58;;;;;;;5.87;1.90;;;;;;;7.87;70.75;95178.78;5001318;28;20183;-71
2023/12/22 10:28:26;;;;;;;7.73;1.87;;;;;;;7.91;71.11;95175.91;4998447;28;20973;-72
2023/12/22 10:30:53;;;;;;;14.13;3.17;;;;;;;7.76;70.70;95184.56;4991474;28;20447;-71
2023/12/22 10:33:18;;;;;;;14.03;2.70;;;;;;;7.87;71.80;95182.25;4988313;28;21076;-70
2023/12/22 10:35:44;;;;;;;16.00;2.67;;;;;;;7.89;70.13;95176.91;4988354;28;20424;-72
2023/12/22 10:38:10;;;;;;;5.13;1.90;;;;;;;7.91;70.29;95169.84;4997211;28;20192;-70
2023/12/22 10:40:37;;;;;;;6.27;2.40;;;;;;;8.01;70.03;95171.06;5006397;28;21175;-71
2023/12/22 10:43:04;;;;;;;14.50;2.93;;;;;;;8.06;69.77;95158.59;5007482;28;20654;-71
2023/12/22 10:45:30;;;;;;;15.87;2.90;;;;;;;7.96;70.79;95160.00;5007227;28;20521;-71
2023/12/22 10:47:57;;;;;;;6.30;3.10;;;;;;;8.00;68.92;95164.97;4999034;28;20626;-71
2023/12/22 10:50:24;;;;;;;7.20;3.80;;;;;;;8.04;69.61;95163.06;5006875;28;20450;-70
2023/12/22 10:52:51;;;;;;;3.50;1.90;;;;;;;8.10;69.16;95169.69;5005448;28;20446;-70
2023/12/22 10:55:17;;;;;;;8.00;2.67;;;;;;;7.97;70.39;95174.75;5007293;28;20462;-70
2023/12/22 10:57:46;;;;;;;11.27;2.70;;;;;;;8.09;69.65;95175.88;5005538;28;21240;-71
2023/12/22 11:00:13;;;;;;;4.33;2.60;;;;;;;8.17;69.87;95164.09;5007627;28;20852;-71
2023/12/22 11:02:42;;;;;;;8.47;5.17;;;;;;;8.12;70.07;95154.78;5003904;28;20450;-70
2023/12/22 11:05:10;;;;;;;9.97;2.60;;;;;;;8.17;69.18;95156.25;5002059;28;20487;-70
2023/12/22 11:07:37;;;;;;;5.47;3.70;;;;;;;8.09;70.38;95147.97;5001759;28;20414;-70
2023/12/22 11:10:05;;;;;;;7.43;2.43;;;;;;;8.04;69.96;95147.38;4999471;28;21010;-70
2023/12/22 11:12:38;;;;;;;7.97;4.00;;;;;;;8.11;68.91;95148.72;5000811;28;20471;-70
2023/12/22 11:15:07;;;;;;;9.23;4.40;;;;;;;7.89;70.72;95143.81;5000122;28;20434;-70
2023/12/22 11:17:34;;;;;;;12.10;4.23;;;;;;;7.89;70.29;95133.38;5002580;28;20509;-71
2023/12/22 11:19:59;;;;;;;9.17;3.80;;;;;;;8.09;69.35;95132.28;5005329;28;20454;-70
2023/12/22 11:22:25;;;;;;;5.67;2.57;;;;;;;8.09;69.22;95140.13;5000288;28;20459;-70
2023/12/22 11:24:52;;;;;;;10.40;4.40;;;;;;;8.20;69.31;95142.16;5001415;28;20219;-70
2023/12/22 11:27:19;;;;;;;5.57;2.73;;;;;;;8.23;69.36;95134.16;5006268;28;20443;-71
2023/12/22 11:29:49;;;;;;;4.13;2.73;;;;;;;8.24;69.52;95139.31;5004485;28;20881;-70
2023/12/22 11:32:17;;;;;;;9.33;2.60;;;;;;;8.24;69.10;95136.69;5003592;28;20993;-70
2023/12/22 11:34:46;;;;;;;5.57;2.87;;;;;;;8.22;69.25;95127.22;5003457;28;20442;-71
2023/12/22 11:37:15;;;;;;;6.53;2.70;;;;;;;8.25;69.53;95122.69;5000120;28;20518;-70